sensor_id;sensor_type;location;lat;lon;timestamp;P1;durP1;ratioP1;P2;durP2;ratioP2
5460;SDS011;2753;49.196;8.286;2023-03-11T00:02:12;0.90;;;0.53;;
5460;SDS011;2753;49.196;8.286;2023-03-11T00:04:38;1.70;;;0.80;;
5460;SDS011;2753;49.196;8.286;2023-03-11T00:07:07;2.73;;;0.73;;
5460;SDS011;2753;49.196;8.286;2023-03-11T00:09:33;0.50;;;0.47;;
5460;SDS011;2753;49.196;8.286;2023-03-11T00:11:59;2.50;;;0.90;;
5460;SDS011;2753;49.196;8.286;2023-03-11T00:14:26;0.80;;;0.70;;
5460;SDS011;2753;49.196;8.286;2023-03-11T00:16:51;0.87;;;0.70;;
5460;SDS011;2753;49.196;8.286;2023-03-11T00:19:17;3.23;;;0.80;;
5460;SDS011;2753;49.196;8.286;2023-03-11T00:21:42;1.10;;;1.00;;
5460;SDS011;2753;49.196;8.286;2023-03-11T00:24:08;3.67;;;1.30;;
5460;SDS011;2753;49.196;8.286;2023-03-11T00:26:34;1.43;;;0.60;;
5460;SDS011;2753;49.196;8.286;2023-03-11T00:28:59;1.97;;;0.53;;
5460;SDS011;2753;49.196;8.286;2023-03-11T00:31:25;1.10;;;0.70;;
5460;SDS011;2753;49.196;8.286;2023-03-11T00:33:51;2.47;;;0.70;;
5460;SDS011;2753;49.196;8.286;2023-03-11T00:38:55;1.63;;;0.50;;
5460;SDS011;2753;49.196;8.286;2023-03-11T00:41:21;3.40;;;0.70;;
5460;SDS011;2753;49.196;8.286;2023-03-11T00:43:47;0.80;;;0.40;;
5460;SDS011;2753;49.196;8.286;2023-03-11T00:46:13;3.53;;;1.13;;
5460;SDS011;2753;49.196;8.286;2023-03-11T00:48:38;3.13;;;0.50;;
5460;SDS011;2753;49.196;8.286;2023-03-11T00:51:05;2.57;;;0.60;;
5460;SDS011;2753;49.196;8.286;2023-03-11T00:53:32;1.33;;;0.67;;
5460;SDS011;2753;49.196;8.286;2023-03-11T00:55:57;3.10;;;0.53;;
5460;SDS011;2753;49.196;8.286;2023-03-11T00:58:24;0.50;;;0.47;;
5460;SDS011;2753;49.196;8.286;2023-03-11T01:00:52;5.70;;;0.97;;
5460;SDS011;2753;49.196;8.286;2023-03-11T01:03:18;2.00;;;0.90;;
5460;SDS011;2753;49.196;8.286;2023-03-11T01:05:44;0.60;;;0.50;;
5460;SDS011;2753;49.196;8.286;2023-03-11T01:08:09;3.23;;;0.97;;
5460;SDS011;2753;49.196;8.286;2023-03-11T01:10:35;1.10;;;0.50;;
5460;SDS011;2753;49.196;8.286;2023-03-11T01:13:01;2.20;;;0.97;;
5460;SDS011;2753;49.196;8.286;2023-03-11T01:15:28;3.67;;;0.60;;
5460;SDS011;2753;49.196;8.286;2023-03-11T01:17:59;4.13;;;0.70;;
5460;SDS011;2753;49.196;8.286;2023-03-11T01:20:25;3.43;;;0.67;;
5460;SDS011;2753;49.196;8.286;2023-03-11T01:22:51;2.30;;;0.60;;
5460;SDS011;2753;49.196;8.286;2023-03-11T01:25:18;2.80;;;0.60;;
5460;SDS011;2753;49.196;8.286;2023-03-11T01:27:45;0.90;;;0.57;;
5460;SDS011;2753;49.196;8.286;2023-03-11T01:30:16;2.40;;;0.90;;
5460;SDS011;2753;49.196;8.286;2023-03-11T01:32:43;2.30;;;0.83;;
5460;SDS011;2753;49.196;8.286;2023-03-11T01:35:10;1.63;;;0.90;;
5460;SDS011;2753;49.196;8.286;2023-03-11T01:37:37;2.07;;;0.70;;
5460;SDS011;2753;49.196;8.286;2023-03-11T01:40:03;1.13;;;0.63;;
5460;SDS011;2753;49.196;8.286;2023-03-11T01:42:30;5.20;;;1.17;;
5460;SDS011;2753;49.196;8.286;2023-03-11T01:44:55;1.27;;;0.63;;
5460;SDS011;2753;49.196;8.286;2023-03-11T01:47:37;1.97;;;1.10;;
5460;SDS011;2753;49.196;8.286;2023-03-11T01:50:04;1.17;;;0.60;;
5460;SDS011;2753;49.196;8.286;2023-03-11T01:52:34;2.50;;;0.70;;
5460;SDS011;2753;49.196;8.286;2023-03-11T01:55:00;4.67;;;0.83;;
5460;SDS011;2753;49.196;8.286;2023-03-11T01:57:25;4.83;;;1.10;;
5460;SDS011;2753;49.196;8.286;2023-03-11T01:59:52;4.77;;;0.97;;
5460;SDS011;2753;49.196;8.286;2023-03-11T02:02:29;3.00;;;1.03;;
5460;SDS011;2753;49.196;8.286;2023-03-11T02:05:01;3.50;;;0.90;;
5460;SDS011;2753;49.196;8.286;2023-03-11T02:07:28;5.03;;;1.00;;
5460;SDS011;2753;49.196;8.286;2023-03-11T02:09:53;1.40;;;0.90;;
5460;SDS011;2753;49.196;8.286;2023-03-11T02:12:19;1.00;;;0.50;;
5460;SDS011;2753;49.196;8.286;2023-03-11T02:14:46;5.70;;;0.90;;
5460;SDS011;2753;49.196;8.286;2023-03-11T02:17:15;6.20;;;1.37;;
5460;SDS011;2753;49.196;8.286;2023-03-11T02:22:06;4.90;;;1.37;;
5460;SDS011;2753;49.196;8.286;2023-03-11T02:24:36;5.17;;;0.80;;
5460;SDS011;2753;49.196;8.286;2023-03-11T02:27:10;3.83;;;0.87;;
5460;SDS011;2753;49.196;8.286;2023-03-11T02:29:38;3.03;;;0.80;;
5460;SDS011;2753;49.196;8.286;2023-03-11T02:32:06;2.50;;;0.70;;
5460;SDS011;2753;49.196;8.286;2023-03-11T02:34:35;3.40;;;1.17;;
5460;SDS011;2753;49.196;8.286;2023-03-11T02:37:04;2.07;;;0.70;;
5460;SDS011;2753;49.196;8.286;2023-03-11T02:39:33;7.00;;;0.87;;
5460;SDS011;2753;49.196;8.286;2023-03-11T02:42:04;7.50;;;1.10;;
5460;SDS011;2753;49.196;8.286;2023-03-11T02:44:35;1.57;;;1.10;;
5460;SDS011;2753;49.196;8.286;2023-03-11T02:47:02;1.83;;;0.87;;
5460;SDS011;2753;49.196;8.286;2023-03-11T02:49:28;2.93;;;0.70;;
5460;SDS011;2753;49.196;8.286;2023-03-11T02:51:55;5.40;;;1.97;;
5460;SDS011;2753;49.196;8.286;2023-03-11T02:54:20;8.90;;;1.07;;
5460;SDS011;2753;49.196;8.286;2023-03-11T02:56:46;2.60;;;1.20;;
5460;SDS011;2753;49.196;8.286;2023-03-11T02:59:12;2.63;;;1.20;;
5460;SDS011;2753;49.196;8.286;2023-03-11T03:01:37;1.33;;;1.07;;
5460;SDS011;2753;49.196;8.286;2023-03-11T03:04:03;1.10;;;1.00;;
5460;SDS011;2753;49.196;8.286;2023-03-11T03:06:29;1.47;;;0.70;;
5460;SDS011;2753;49.196;8.286;2023-03-11T03:08:54;1.73;;;0.80;;
5460;SDS011;2753;49.196;8.286;2023-03-11T03:11:20;5.30;;;1.27;;
5460;SDS011;2753;49.196;8.286;2023-03-11T03:13:46;2.40;;;1.00;;
5460;SDS011;2753;49.196;8.286;2023-03-11T03:16:12;2.40;;;1.17;;
5460;SDS011;2753;49.196;8.286;2023-03-11T03:18:38;6.03;;;1.13;;
5460;SDS011;2753;49.196;8.286;2023-03-11T03:21:03;2.30;;;0.70;;
5460;SDS011;2753;49.196;8.286;2023-03-11T03:23:29;5.30;;;0.73;;
5460;SDS011;2753;49.196;8.286;2023-03-11T03:25:59;2.73;;;1.30;;
5460;SDS011;2753;49.196;8.286;2023-03-11T03:28:31;4.63;;;0.93;;
5460;SDS011;2753;49.196;8.286;2023-03-11T03:31:03;1.27;;;0.70;;
5460;SDS011;2753;49.196;8.286;2023-03-11T03:33:30;3.33;;;0.90;;
5460;SDS011;2753;49.196;8.286;2023-03-11T03:35:56;9.00;;;0.90;;
5460;SDS011;2753;49.196;8.286;2023-03-11T03:38:22;1.40;;;1.00;;
5460;SDS011;2753;49.196;8.286;2023-03-11T03:40:47;3.13;;;0.80;;
5460;SDS011;2753;49.196;8.286;2023-03-11T03:43:13;2.63;;;0.73;;
5460;SDS011;2753;49.196;8.286;2023-03-11T03:45:39;1.20;;;0.80;;
5460;SDS011;2753;49.196;8.286;2023-03-11T03:48:05;4.60;;;1.10;;
5460;SDS011;2753;49.196;8.286;2023-03-11T03:50:31;2.53;;;0.90;;
5460;SDS011;2753;49.196;8.286;2023-03-11T03:52:57;4.10;;;1.00;;
5460;SDS011;2753;49.196;8.286;2023-03-11T03:55:22;3.13;;;1.80;;
5460;SDS011;2753;49.196;8.286;2023-03-11T03:57:48;2.77;;;0.70;;
5460;SDS011;2753;49.196;8.286;2023-03-11T04:00:14;2.23;;;0.70;;
5460;SDS011;2753;49.196;8.286;2023-03-11T04:02:40;5.90;;;1.53;;
5460;SDS011;2753;49.196;8.286;2023-03-11T04:05:06;9.57;;;1.00;;
5460;SDS011;2753;49.196;8.286;2023-03-11T04:07:33;2.73;;;0.70;;
5460;SDS011;2753;49.196;8.286;2023-03-11T04:10:00;1.93;;;0.70;;
5460;SDS011;2753;49.196;8.286;2023-03-11T04:12:25;4.10;;;0.80;;
5460;SDS011;2753;49.196;8.286;2023-03-11T04:14:51;2.97;;;1.17;;
5460;SDS011;2753;49.196;8.286;2023-03-11T04:17:17;4.23;;;1.00;;
5460;SDS011;2753;49.196;8.286;2023-03-11T04:19:42;4.70;;;1.13;;
5460;SDS011;2753;49.196;8.286;2023-03-11T04:22:08;10.90;;;1.20;;
5460;SDS011;2753;49.196;8.286;2023-03-11T04:24:34;6.63;;;1.63;;
5460;SDS011;2753;49.196;8.286;2023-03-11T04:27:00;4.50;;;0.93;;
5460;SDS011;2753;49.196;8.286;2023-03-11T04:29:25;2.93;;;0.80;;
5460;SDS011;2753;49.196;8.286;2023-03-11T04:31:51;3.37;;;0.73;;
5460;SDS011;2753;49.196;8.286;2023-03-11T04:34:17;4.63;;;1.20;;
5460;SDS011;2753;49.196;8.286;2023-03-11T04:36:42;5.20;;;0.80;;
5460;SDS011;2753;49.196;8.286;2023-03-11T04:39:08;1.50;;;0.70;;
5460;SDS011;2753;49.196;8.286;2023-03-11T04:41:34;2.53;;;1.10;;
5460;SDS011;2753;49.196;8.286;2023-03-11T04:44:00;4.63;;;1.23;;
5460;SDS011;2753;49.196;8.286;2023-03-11T04:46:25;9.20;;;1.63;;
5460;SDS011;2753;49.196;8.286;2023-03-11T04:48:51;6.00;;;2.40;;
5460;SDS011;2753;49.196;8.286;2023-03-11T04:51:17;5.63;;;1.70;;
5460;SDS011;2753;49.196;8.286;2023-03-11T04:53:43;5.43;;;1.27;;
5460;SDS011;2753;49.196;8.286;2023-03-11T04:56:08;4.60;;;1.30;;
5460;SDS011;2753;49.196;8.286;2023-03-11T04:58:34;8.17;;;1.33;;
5460;SDS011;2753;49.196;8.286;2023-03-11T05:00:59;4.37;;;0.90;;
5460;SDS011;2753;49.196;8.286;2023-03-11T05:03:25;10.43;;;1.40;;
5460;SDS011;2753;49.196;8.286;2023-03-11T05:05:51;4.60;;;1.10;;
5460;SDS011;2753;49.196;8.286;2023-03-11T05:08:20;4.83;;;1.10;;
5460;SDS011;2753;49.196;8.286;2023-03-11T05:10:47;3.93;;;1.17;;
5460;SDS011;2753;49.196;8.286;2023-03-11T05:13:12;5.00;;;1.63;;
5460;SDS011;2753;49.196;8.286;2023-03-11T05:15:38;3.47;;;1.23;;
5460;SDS011;2753;49.196;8.286;2023-03-11T05:18:03;2.83;;;1.80;;
5460;SDS011;2753;49.196;8.286;2023-03-11T05:20:29;7.40;;;2.47;;
5460;SDS011;2753;49.196;8.286;2023-03-11T05:22:56;3.53;;;2.00;;
5460;SDS011;2753;49.196;8.286;2023-03-11T05:25:22;6.03;;;1.73;;
5460;SDS011;2753;49.196;8.286;2023-03-11T05:27:47;4.40;;;1.53;;
5460;SDS011;2753;49.196;8.286;2023-03-11T05:30:13;7.80;;;1.63;;
5460;SDS011;2753;49.196;8.286;2023-03-11T05:32:39;12.00;;;1.90;;
5460;SDS011;2753;49.196;8.286;2023-03-11T05:35:05;4.87;;;1.70;;
5460;SDS011;2753;49.196;8.286;2023-03-11T05:37:31;3.60;;;1.40;;
5460;SDS011;2753;49.196;8.286;2023-03-11T05:39:57;7.77;;;1.30;;
5460;SDS011;2753;49.196;8.286;2023-03-11T05:42:22;6.57;;;1.40;;
5460;SDS011;2753;49.196;8.286;2023-03-11T05:44:48;8.90;;;3.37;;
5460;SDS011;2753;49.196;8.286;2023-03-11T05:47:15;6.93;;;3.40;;
5460;SDS011;2753;49.196;8.286;2023-03-11T05:49:41;6.00;;;3.30;;
5460;SDS011;2753;49.196;8.286;2023-03-11T05:52:06;8.33;;;2.57;;
5460;SDS011;2753;49.196;8.286;2023-03-11T05:54:32;3.07;;;1.40;;
5460;SDS011;2753;49.196;8.286;2023-03-11T05:56:58;4.30;;;1.80;;
5460;SDS011;2753;49.196;8.286;2023-03-11T05:59:23;9.00;;;1.87;;
5460;SDS011;2753;49.196;8.286;2023-03-11T06:01:49;3.13;;;1.67;;
5460;SDS011;2753;49.196;8.286;2023-03-11T06:04:15;9.40;;;1.60;;
5460;SDS011;2753;49.196;8.286;2023-03-11T06:06:40;5.13;;;1.53;;
5460;SDS011;2753;49.196;8.286;2023-03-11T06:09:06;3.93;;;1.70;;
5460;SDS011;2753;49.196;8.286;2023-03-11T06:11:37;2.30;;;1.53;;
5460;SDS011;2753;49.196;8.286;2023-03-11T06:14:02;9.80;;;1.70;;
5460;SDS011;2753;49.196;8.286;2023-03-11T06:16:28;6.53;;;1.23;;
5460;SDS011;2753;49.196;8.286;2023-03-11T06:18:53;5.10;;;1.10;;
5460;SDS011;2753;49.196;8.286;2023-03-11T06:21:20;4.93;;;1.07;;
5460;SDS011;2753;49.196;8.286;2023-03-11T06:23:47;3.67;;;1.13;;
5460;SDS011;2753;49.196;8.286;2023-03-11T06:26:15;5.13;;;1.70;;
5460;SDS011;2753;49.196;8.286;2023-03-11T06:28:43;3.90;;;1.53;;
5460;SDS011;2753;49.196;8.286;2023-03-11T06:31:09;3.40;;;1.60;;
5460;SDS011;2753;49.196;8.286;2023-03-11T06:33:37;8.77;;;2.13;;
5460;SDS011;2753;49.196;8.286;2023-03-11T06:36:03;2.73;;;0.83;;
5460;SDS011;2753;49.196;8.286;2023-03-11T06:38:30;3.90;;;1.73;;
5460;SDS011;2753;49.196;8.286;2023-03-11T06:40:59;5.00;;;1.40;;
5460;SDS011;2753;49.196;8.286;2023-03-11T06:43:26;6.50;;;1.80;;
5460;SDS011;2753;49.196;8.286;2023-03-11T06:45:52;7.60;;;2.10;;
5460;SDS011;2753;49.196;8.286;2023-03-11T06:48:18;9.70;;;1.40;;
5460;SDS011;2753;49.196;8.286;2023-03-11T06:50:43;9.00;;;2.57;;
5460;SDS011;2753;49.196;8.286;2023-03-11T06:53:17;3.87;;;1.80;;
5460;SDS011;2753;49.196;8.286;2023-03-11T06:55:42;10.13;;;1.40;;
5460;SDS011;2753;49.196;8.286;2023-03-11T06:58:08;5.23;;;2.50;;
5460;SDS011;2753;49.196;8.286;2023-03-11T07:00:33;5.40;;;2.13;;
5460;SDS011;2753;49.196;8.286;2023-03-11T07:02:59;8.93;;;1.83;;
5460;SDS011;2753;49.196;8.286;2023-03-11T07:05:25;4.50;;;1.33;;
5460;SDS011;2753;49.196;8.286;2023-03-11T07:07:52;6.67;;;1.80;;
5460;SDS011;2753;49.196;8.286;2023-03-11T07:10:19;5.53;;;2.20;;
5460;SDS011;2753;49.196;8.286;2023-03-11T07:12:45;8.90;;;2.17;;
5460;SDS011;2753;49.196;8.286;2023-03-11T07:15:10;1.97;;;1.20;;
5460;SDS011;2753;49.196;8.286;2023-03-11T07:17:36;6.43;;;1.57;;
5460;SDS011;2753;49.196;8.286;2023-03-11T07:20:02;6.50;;;1.87;;
5460;SDS011;2753;49.196;8.286;2023-03-11T07:22:28;10.13;;;2.20;;
5460;SDS011;2753;49.196;8.286;2023-03-11T07:24:54;4.03;;;1.43;;
5460;SDS011;2753;49.196;8.286;2023-03-11T07:27:20;8.37;;;2.10;;
5460;SDS011;2753;49.196;8.286;2023-03-11T07:29:46;5.80;;;1.43;;
5460;SDS011;2753;49.196;8.286;2023-03-11T07:32:12;9.23;;;1.80;;
5460;SDS011;2753;49.196;8.286;2023-03-11T07:34:37;10.20;;;2.27;;
5460;SDS011;2753;49.196;8.286;2023-03-11T07:37:03;7.80;;;1.90;;
5460;SDS011;2753;49.196;8.286;2023-03-11T07:39:29;3.77;;;2.00;;
5460;SDS011;2753;49.196;8.286;2023-03-11T07:41:54;8.97;;;2.07;;
5460;SDS011;2753;49.196;8.286;2023-03-11T07:44:21;5.83;;;1.97;;
5460;SDS011;2753;49.196;8.286;2023-03-11T07:46:46;3.63;;;1.50;;
5460;SDS011;2753;49.196;8.286;2023-03-11T07:49:12;13.13;;;1.47;;
5460;SDS011;2753;49.196;8.286;2023-03-11T07:51:38;4.90;;;1.13;;
5460;SDS011;2753;49.196;8.286;2023-03-11T07:54:08;12.47;;;1.87;;
5460;SDS011;2753;49.196;8.286;2023-03-11T07:56:35;8.53;;;1.47;;
5460;SDS011;2753;49.196;8.286;2023-03-11T07:59:01;4.60;;;1.10;;
5460;SDS011;2753;49.196;8.286;2023-03-11T08:01:29;5.53;;;1.87;;
5460;SDS011;2753;49.196;8.286;2023-03-11T08:04:00;5.93;;;1.10;;
5460;SDS011;2753;49.196;8.286;2023-03-11T08:06:28;6.27;;;1.60;;
5460;SDS011;2753;49.196;8.286;2023-03-11T08:08:56;6.70;;;2.40;;
5460;SDS011;2753;49.196;8.286;2023-03-11T08:11:23;6.53;;;1.50;;
5460;SDS011;2753;49.196;8.286;2023-03-11T08:13:50;14.03;;;1.87;;
5460;SDS011;2753;49.196;8.286;2023-03-11T08:16:17;14.47;;;1.60;;
5460;SDS011;2753;49.196;8.286;2023-03-11T08:18:45;3.70;;;1.17;;
5460;SDS011;2753;49.196;8.286;2023-03-11T08:21:13;7.73;;;1.30;;
5460;SDS011;2753;49.196;8.286;2023-03-11T08:23:42;6.27;;;0.90;;
5460;SDS011;2753;49.196;8.286;2023-03-11T08:26:10;4.90;;;1.10;;
5460;SDS011;2753;49.196;8.286;2023-03-11T08:28:38;7.40;;;1.20;;
5460;SDS011;2753;49.196;8.286;2023-03-11T08:31:10;4.53;;;2.13;;
5460;SDS011;2753;49.196;8.286;2023-03-11T08:33:37;5.30;;;1.67;;
5460;SDS011;2753;49.196;8.286;2023-03-11T08:36:03;17.70;;;1.80;;
5460;SDS011;2753;49.196;8.286;2023-03-11T08:38:29;7.93;;;1.00;;
5460;SDS011;2753;49.196;8.286;2023-03-11T08:40:55;5.80;;;1.50;;
5460;SDS011;2753;49.196;8.286;2023-03-11T08:43:20;3.53;;;0.90;;
5460;SDS011;2753;49.196;8.286;2023-03-11T08:45:46;8.63;;;1.20;;
5460;SDS011;2753;49.196;8.286;2023-03-11T08:48:11;4.47;;;1.43;;
5460;SDS011;2753;49.196;8.286;2023-03-11T08:50:41;15.53;;;1.77;;
5460;SDS011;2753;49.196;8.286;2023-03-11T08:53:07;3.43;;;1.40;;
5460;SDS011;2753;49.196;8.286;2023-03-11T08:55:33;6.63;;;1.23;;
5460;SDS011;2753;49.196;8.286;2023-03-11T08:57:59;10.03;;;1.37;;
5460;SDS011;2753;49.196;8.286;2023-03-11T09:00:25;5.03;;;1.20;;
5460;SDS011;2753;49.196;8.286;2023-03-11T09:02:51;7.27;;;1.37;;
5460;SDS011;2753;49.196;8.286;2023-03-11T09:05:17;7.97;;;1.07;;
5460;SDS011;2753;49.196;8.286;2023-03-11T09:07:43;2.20;;;1.20;;
5460;SDS011;2753;49.196;8.286;2023-03-11T09:10:10;3.47;;;1.17;;
5460;SDS011;2753;49.196;8.286;2023-03-11T09:12:38;3.93;;;1.40;;
5460;SDS011;2753;49.196;8.286;2023-03-11T09:15:04;2.40;;;1.03;;
5460;SDS011;2753;49.196;8.286;2023-03-11T09:17:30;6.20;;;1.17;;
5460;SDS011;2753;49.196;8.286;2023-03-11T09:19:56;5.53;;;1.30;;
5460;SDS011;2753;49.196;8.286;2023-03-11T09:22:22;3.87;;;1.03;;
5460;SDS011;2753;49.196;8.286;2023-03-11T09:24:47;2.23;;;1.10;;
5460;SDS011;2753;49.196;8.286;2023-03-11T09:27:13;12.60;;;2.40;;
5460;SDS011;2753;49.196;8.286;2023-03-11T09:29:39;2.60;;;1.27;;
5460;SDS011;2753;49.196;8.286;2023-03-11T09:32:05;2.57;;;1.00;;
5460;SDS011;2753;49.196;8.286;2023-03-11T09:34:31;7.63;;;0.83;;
5460;SDS011;2753;49.196;8.286;2023-03-11T09:36:57;7.37;;;1.30;;
5460;SDS011;2753;49.196;8.286;2023-03-11T09:39:24;1.87;;;1.10;;
5460;SDS011;2753;49.196;8.286;2023-03-11T09:41:54;1.90;;;0.93;;
5460;SDS011;2753;49.196;8.286;2023-03-11T09:47:17;5.70;;;0.70;;
5460;SDS011;2753;49.196;8.286;2023-03-11T09:52:49;2.80;;;1.07;;
5460;SDS011;2753;49.196;8.286;2023-03-11T09:55:41;5.73;;;1.27;;
5460;SDS011;2753;49.196;8.286;2023-03-11T10:01:23;11.33;;;1.77;;
5460;SDS011;2753;49.196;8.286;2023-03-11T10:03:57;6.70;;;1.40;;
5460;SDS011;2753;49.196;8.286;2023-03-11T10:06:37;4.53;;;1.20;;
5460;SDS011;2753;49.196;8.286;2023-03-11T10:28:11;2.20;;;0.87;;
5460;SDS011;2753;49.196;8.286;2023-03-11T10:30:49;4.50;;;1.10;;
5460;SDS011;2753;49.196;8.286;2023-03-11T10:33:34;4.10;;;1.23;;
5460;SDS011;2753;49.196;8.286;2023-03-11T10:36:09;4.77;;;1.03;;
5460;SDS011;2753;49.196;8.286;2023-03-11T10:38:43;2.60;;;0.60;;
5460;SDS011;2753;49.196;8.286;2023-03-11T10:41:13;5.10;;;1.50;;
5460;SDS011;2753;49.196;8.286;2023-03-11T10:43:49;1.73;;;1.10;;
5460;SDS011;2753;49.196;8.286;2023-03-11T10:46:27;2.10;;;1.10;;
5460;SDS011;2753;49.196;8.286;2023-03-11T10:48:53;1.63;;;0.80;;
5460;SDS011;2753;49.196;8.286;2023-03-11T10:51:23;5.47;;;0.90;;
5460;SDS011;2753;49.196;8.286;2023-03-11T10:53:58;4.07;;;1.20;;
5460;SDS011;2753;49.196;8.286;2023-03-11T10:56:30;3.43;;;0.73;;
5460;SDS011;2753;49.196;8.286;2023-03-11T10:58:56;2.40;;;0.93;;
5460;SDS011;2753;49.196;8.286;2023-03-11T11:01:23;4.10;;;1.30;;
5460;SDS011;2753;49.196;8.286;2023-03-11T11:03:49;3.17;;;1.20;;
5460;SDS011;2753;49.196;8.286;2023-03-11T11:14:49;5.20;;;1.03;;
5460;SDS011;2753;49.196;8.286;2023-03-11T11:17:17;2.13;;;0.87;;
5460;SDS011;2753;49.196;8.286;2023-03-11T11:20:04;1.60;;;1.50;;
5460;SDS011;2753;49.196;8.286;2023-03-11T11:22:46;4.50;;;0.90;;
5460;SDS011;2753;49.196;8.286;2023-03-11T11:25:24;3.17;;;2.03;;
5460;SDS011;2753;49.196;8.286;2023-03-11T11:28:00;12.93;;;1.93;;
5460;SDS011;2753;49.196;8.286;2023-03-11T11:30:29;4.60;;;1.73;;
5460;SDS011;2753;49.196;8.286;2023-03-11T11:32:55;1.87;;;1.00;;
5460;SDS011;2753;49.196;8.286;2023-03-11T11:35:33;5.33;;;1.00;;
5460;SDS011;2753;49.196;8.286;2023-03-11T11:37:59;2.07;;;1.13;;
5460;SDS011;2753;49.196;8.286;2023-03-11T11:40:31;9.50;;;1.23;;
5460;SDS011;2753;49.196;8.286;2023-03-11T11:43:04;1.33;;;1.07;;
5460;SDS011;2753;49.196;8.286;2023-03-11T11:45:37;3.07;;;1.30;;
5460;SDS011;2753;49.196;8.286;2023-03-11T11:48:33;3.10;;;0.80;;
5460;SDS011;2753;49.196;8.286;2023-03-11T11:51:17;7.17;;;0.90;;
5460;SDS011;2753;49.196;8.286;2023-03-11T11:56:24;1.83;;;1.10;;
5460;SDS011;2753;49.196;8.286;2023-03-11T11:58:50;6.03;;;1.60;;
5460;SDS011;2753;49.196;8.286;2023-03-11T12:01:38;5.83;;;1.70;;
5460;SDS011;2753;49.196;8.286;2023-03-11T12:12:32;2.80;;;0.70;;
5460;SDS011;2753;49.196;8.286;2023-03-11T12:15:49;1.33;;;0.80;;
5460;SDS011;2753;49.196;8.286;2023-03-11T12:18:01;4.20;;;1.00;;
5460;SDS011;2753;49.196;8.286;2023-03-11T12:20:36;6.37;;;3.17;;
5460;SDS011;2753;49.196;8.286;2023-03-11T12:31:21;6.27;;;1.63;;
5460;SDS011;2753;49.196;8.286;2023-03-11T12:33:49;3.23;;;1.07;;
5460;SDS011;2753;49.196;8.286;2023-03-11T12:36:33;4.83;;;0.90;;
5460;SDS011;2753;49.196;8.286;2023-03-11T12:39:18;3.87;;;0.87;;
5460;SDS011;2753;49.196;8.286;2023-03-11T12:41:47;1.63;;;0.70;;
5460;SDS011;2753;49.196;8.286;2023-03-11T12:49:28;2.50;;;0.60;;
5460;SDS011;2753;49.196;8.286;2023-03-11T13:00:13;8.63;;;1.23;;
5460;SDS011;2753;49.196;8.286;2023-03-11T13:08:16;1.30;;;1.13;;
5460;SDS011;2753;49.196;8.286;2023-03-11T13:10:45;2.70;;;0.87;;
5460;SDS011;2753;49.196;8.286;2023-03-11T13:15:49;4.20;;;0.83;;
5460;SDS011;2753;49.196;8.286;2023-03-11T13:21:01;9.57;;;2.10;;
5460;SDS011;2753;49.196;8.286;2023-03-11T13:44:51;9.93;;;4.67;;
5460;SDS011;2753;49.196;8.286;2023-03-11T13:47:17;8.70;;;3.87;;
5460;SDS011;2753;49.196;8.286;2023-03-11T13:52:14;2.40;;;1.03;;
5460;SDS011;2753;49.196;8.286;2023-03-11T13:54:55;4.33;;;1.10;;
5460;SDS011;2753;49.196;8.286;2023-03-11T13:57:37;2.53;;;0.87;;
5460;SDS011;2753;49.196;8.286;2023-03-11T14:03:24;8.90;;;1.20;;
5460;SDS011;2753;49.196;8.286;2023-03-11T14:05:36;1.90;;;0.77;;
5460;SDS011;2753;49.196;8.286;2023-03-11T14:08:19;3.77;;;0.90;;
5460;SDS011;2753;49.196;8.286;2023-03-11T14:11:11;4.03;;;1.27;;
5460;SDS011;2753;49.196;8.286;2023-03-11T14:13:41;6.17;;;1.53;;
5460;SDS011;2753;49.196;8.286;2023-03-11T14:18:46;5.70;;;1.10;;
5460;SDS011;2753;49.196;8.286;2023-03-11T14:21:27;2.13;;;0.93;;
5460;SDS011;2753;49.196;8.286;2023-03-11T14:23:55;6.00;;;2.40;;
5460;SDS011;2753;49.196;8.286;2023-03-11T14:26:27;1.90;;;0.70;;
5460;SDS011;2753;49.196;8.286;2023-03-11T14:28:58;3.10;;;0.80;;
5460;SDS011;2753;49.196;8.286;2023-03-11T14:31:42;3.90;;;1.27;;
5460;SDS011;2753;49.196;8.286;2023-03-11T14:36:47;3.93;;;1.60;;
5460;SDS011;2753;49.196;8.286;2023-03-11T14:39:29;4.93;;;0.80;;
5460;SDS011;2753;49.196;8.286;2023-03-11T14:50:18;1.30;;;1.20;;
5460;SDS011;2753;49.196;8.286;2023-03-11T14:53:29;7.10;;;1.00;;
5460;SDS011;2753;49.196;8.286;2023-03-11T14:58:32;4.50;;;1.27;;
5460;SDS011;2753;49.196;8.286;2023-03-11T15:03:33;4.73;;;1.50;;
5460;SDS011;2753;49.196;8.286;2023-03-11T15:08:33;3.53;;;2.53;;
5460;SDS011;2753;49.196;8.286;2023-03-11T15:13:37;5.77;;;1.40;;
5460;SDS011;2753;49.196;8.286;2023-03-11T15:16:21;3.03;;;1.07;;
5460;SDS011;2753;49.196;8.286;2023-03-11T15:18:59;2.80;;;1.60;;
5460;SDS011;2753;49.196;8.286;2023-03-11T15:21:44;8.20;;;2.37;;
5460;SDS011;2753;49.196;8.286;2023-03-11T15:24:14;2.60;;;1.77;;
5460;SDS011;2753;49.196;8.286;2023-03-11T15:26:50;2.77;;;1.00;;
5460;SDS011;2753;49.196;8.286;2023-03-11T15:29:45;2.93;;;2.10;;
5460;SDS011;2753;49.196;8.286;2023-03-11T15:35:10;3.63;;;1.10;;
5460;SDS011;2753;49.196;8.286;2023-03-11T15:37:37;5.70;;;0.93;;
5460;SDS011;2753;49.196;8.286;2023-03-11T15:40:37;4.83;;;1.33;;
5460;SDS011;2753;49.196;8.286;2023-03-11T15:43:19;4.90;;;1.00;;
5460;SDS011;2753;49.196;8.286;2023-03-11T15:45:48;4.80;;;1.70;;
5460;SDS011;2753;49.196;8.286;2023-03-11T15:48:17;6.20;;;1.50;;
5460;SDS011;2753;49.196;8.286;2023-03-11T15:53:19;2.77;;;1.63;;
5460;SDS011;2753;49.196;8.286;2023-03-11T15:55:45;4.43;;;1.57;;
5460;SDS011;2753;49.196;8.286;2023-03-11T15:58:13;5.10;;;1.37;;
5460;SDS011;2753;49.196;8.286;2023-03-11T16:00:41;5.60;;;1.90;;
5460;SDS011;2753;49.196;8.286;2023-03-11T16:03:12;3.87;;;1.77;;
5460;SDS011;2753;49.196;8.286;2023-03-11T16:05:38;2.03;;;1.00;;
5460;SDS011;2753;49.196;8.286;2023-03-11T16:08:04;4.23;;;1.40;;
5460;SDS011;2753;49.196;8.286;2023-03-11T16:10:30;8.60;;;1.97;;
5460;SDS011;2753;49.196;8.286;2023-03-11T16:12:55;7.43;;;1.67;;
5460;SDS011;2753;49.196;8.286;2023-03-11T16:15:26;3.70;;;1.93;;
5460;SDS011;2753;49.196;8.286;2023-03-11T16:17:57;7.60;;;2.93;;
5460;SDS011;2753;49.196;8.286;2023-03-11T16:20:25;7.17;;;1.40;;
5460;SDS011;2753;49.196;8.286;2023-03-11T16:22:55;5.13;;;1.70;;
5460;SDS011;2753;49.196;8.286;2023-03-11T16:25:35;4.00;;;2.00;;
5460;SDS011;2753;49.196;8.286;2023-03-11T16:28:04;7.23;;;4.43;;
5460;SDS011;2753;49.196;8.286;2023-03-11T16:30:31;5.47;;;3.77;;
5460;SDS011;2753;49.196;8.286;2023-03-11T16:32:58;3.07;;;1.93;;
5460;SDS011;2753;49.196;8.286;2023-03-11T16:35:24;5.77;;;3.60;;
5460;SDS011;2753;49.196;8.286;2023-03-11T16:37:50;12.93;;;3.47;;
5460;SDS011;2753;49.196;8.286;2023-03-11T16:40:17;8.33;;;5.60;;
5460;SDS011;2753;49.196;8.286;2023-03-11T16:42:45;14.33;;;4.20;;
5460;SDS011;2753;49.196;8.286;2023-03-11T16:45:11;6.70;;;2.40;;
5460;SDS011;2753;49.196;8.286;2023-03-11T16:47:38;6.57;;;3.27;;
5460;SDS011;2753;49.196;8.286;2023-03-11T16:50:04;12.80;;;2.87;;
5460;SDS011;2753;49.196;8.286;2023-03-11T16:52:30;9.10;;;2.50;;
5460;SDS011;2753;49.196;8.286;2023-03-11T16:54:56;5.10;;;3.10;;
5460;SDS011;2753;49.196;8.286;2023-03-11T16:57:21;12.70;;;3.80;;
5460;SDS011;2753;49.196;8.286;2023-03-11T16:59:47;9.80;;;2.30;;
5460;SDS011;2753;49.196;8.286;2023-03-11T17:02:13;6.50;;;1.63;;
5460;SDS011;2753;49.196;8.286;2023-03-11T17:04:39;4.17;;;2.70;;
5460;SDS011;2753;49.196;8.286;2023-03-11T17:07:05;3.13;;;1.70;;
5460;SDS011;2753;49.196;8.286;2023-03-11T17:09:32;8.63;;;1.70;;
5460;SDS011;2753;49.196;8.286;2023-03-11T17:11:59;6.50;;;2.53;;
5460;SDS011;2753;49.196;8.286;2023-03-11T17:14:26;2.93;;;1.20;;
5460;SDS011;2753;49.196;8.286;2023-03-11T17:16:52;6.10;;;1.80;;
5460;SDS011;2753;49.196;8.286;2023-03-11T17:19:18;4.07;;;1.07;;
5460;SDS011;2753;49.196;8.286;2023-03-11T17:21:43;3.17;;;1.47;;
5460;SDS011;2753;49.196;8.286;2023-03-11T17:24:10;5.50;;;1.50;;
5460;SDS011;2753;49.196;8.286;2023-03-11T17:26:36;8.73;;;1.23;;
5460;SDS011;2753;49.196;8.286;2023-03-11T17:29:02;3.50;;;1.10;;
5460;SDS011;2753;49.196;8.286;2023-03-11T17:31:28;6.27;;;2.67;;
5460;SDS011;2753;49.196;8.286;2023-03-11T17:33:54;4.73;;;1.40;;
5460;SDS011;2753;49.196;8.286;2023-03-11T17:36:21;4.07;;;1.50;;
5460;SDS011;2753;49.196;8.286;2023-03-11T17:38:50;9.43;;;1.50;;
5460;SDS011;2753;49.196;8.286;2023-03-11T17:41:19;3.03;;;1.40;;
5460;SDS011;2753;49.196;8.286;2023-03-11T17:43:46;5.53;;;1.07;;
5460;SDS011;2753;49.196;8.286;2023-03-11T17:46:13;5.80;;;1.20;;